»·PEaware :: N654B KPSC-KBOI

N654B :: KPSC-KBOI

FLIGHT INFORMATION

Flight Status: Arrived
Operator: Privately registered:
United States
More flights under this callsign
Pilot: Chase G. (14174)
Aircraft: PILATUS PC-12 EAGLE
(PC12)
More flights by this aircraft type
Origin: KPSC Tri-Cities
United States
Destination: KBOI Boise Air Terminal/Gowen
United States
More flights between these airports :: More routes between these airports
Route: +DEVLE
File this flight plan on PilotEdge
Remarks:
Altitude:
(Current/Filed)
19,000ft
Speed:
(Current/Filed)
230kts
Departed: 18-Apr-20 05:20 PM
Arrived: 18-Apr-20 06:15 PM
Distance/Time
Traveled:
203nm/0:55
Distance/Time
To Go:
Arrived

Flight Plot

Page will automatically refresh every two minutes.


Map Options




Map Legend


Flown Route
Filed Route
Departure Airport
Arrival Airport
Navaid (VOR, NDB)
Fix

Horizontal Profiles

Position Reports

Time Latitude Longitude Heading Altitude Ground
Speed
18-Apr-20 17:08 46.266394 -119.106272 251 416ft 0kts
18-Apr-20 17:09 46.266394 -119.106272 251 416ft 0kts
18-Apr-20 17:10 46.266394 -119.106272 251 416ft 0kts
18-Apr-20 17:12 46.266394 -119.106272 251 416ft 0kts
18-Apr-20 17:13 46.266394 -119.106272 251 416ft 0kts
18-Apr-20 17:14 46.266393 -119.106272 250 416ft 0kts
18-Apr-20 17:15 46.266393 -119.106272 250 416ft 0kts
18-Apr-20 17:16 46.266300 -119.106582 242 415ft 7kts
18-Apr-20 17:17 46.267766 -119.108614 1 412ft 12kts
18-Apr-20 17:18 46.268402 -119.108788 329 412ft 0kts
18-Apr-20 17:19 46.268900 -119.109673 257 411ft 5kts
18-Apr-20 17:20 46.257844 -119.126558 222 870ft 96kts
18-Apr-20 17:21 46.234260 -119.161962 223 1960ft 153kts
18-Apr-20 17:22 46.190820 -119.147028 149 3017ft 199kts
18-Apr-20 17:23 46.143080 -119.099484 148 4035ft 215kts
18-Apr-20 17:24 46.093330 -119.049807 148 5033ft 220kts
18-Apr-20 17:25 46.042843 -118.999530 148 6029ft 221kts
18-Apr-20 17:26 45.992513 -118.949495 148 7021ft 219kts
18-Apr-20 17:27 45.942416 -118.899847 148 8018ft 218kts
18-Apr-20 17:28 45.892719 -118.850673 148 9019ft 217kts
18-Apr-20 17:28 45.851128 -118.809631 148 9855ft 219kts
18-Apr-20 17:30 45.792691 -118.752032 148 11024ft 217kts
18-Apr-20 17:31 45.743075 -118.703296 148 12027ft 216kts
18-Apr-20 17:32 45.693457 -118.654614 148 13029ft 216kts
18-Apr-20 17:32 45.652297 -118.614348 148 13863ft 214kts
18-Apr-20 17:34 45.595339 -118.558722 149 15028ft 211kts
18-Apr-20 17:35 45.546332 -118.510974 149 16042ft 214kts
18-Apr-20 17:35 45.505121 -118.470910 149 16885ft 214kts
18-Apr-20 17:36 45.456139 -118.423371 149 17888ft 212kts
18-Apr-20 17:37 45.407670 -118.376420 150 18892ft 208kts
18-Apr-20 17:38 45.356647 -118.327211 150 18986ft 239kts
18-Apr-20 17:39 45.299500 -118.272092 150 18982ft 253kts
18-Apr-20 17:40 45.240379 -118.215225 150 18981ft 258kts
18-Apr-20 17:41 45.180360 -118.157662 150 18981ft 260kts
18-Apr-20 17:42 45.120217 -118.100106 150 18980ft 261kts
18-Apr-20 17:43 45.059949 -118.042626 150 18953ft 262kts
18-Apr-20 17:44 44.999562 -117.985128 150 18923ft 263kts
18-Apr-20 17:45 44.938525 -117.927220 150 18908ft 263kts
18-Apr-20 17:46 44.877651 -117.869575 150 18909ft 263kts
18-Apr-20 17:47 44.816680 -117.812019 151 18910ft 264kts
18-Apr-20 17:48 44.755783 -117.754668 151 18909ft 264kts
18-Apr-20 17:49 44.694778 -117.697354 151 18910ft 264kts
18-Apr-20 17:50 44.633584 -117.640024 151 18910ft 264kts
18-Apr-20 17:51 44.572555 -117.582987 151 18910ft 264kts
18-Apr-20 17:52 44.511432 -117.526010 151 18910ft 264kts
18-Apr-20 17:53 44.450190 -117.469063 151 18909ft 264kts
18-Apr-20 17:54 44.389052 -117.412368 151 18906ft 264kts
18-Apr-20 17:55 44.327861 -117.355763 151 18903ft 264kts
18-Apr-20 17:56 44.266434 -117.299084 152 18897ft 263kts
18-Apr-20 17:57 44.206584 -117.240166 136 18899ft 269kts
18-Apr-20 17:58 44.157376 -117.160981 135 18615ft 276kts
18-Apr-20 17:59 44.105974 -117.078458 135 17448ft 289kts
18-Apr-20 18:00 44.052646 -116.993060 134 16156ft 294kts
18-Apr-20 18:01 43.998917 -116.907257 134 14862ft 295kts
18-Apr-20 18:02 43.945111 -116.821647 134 13563ft 292kts
18-Apr-20 18:03 43.892074 -116.737482 133 12110ft 284kts
18-Apr-20 18:04 43.841086 -116.656790 133 10616ft 276kts
18-Apr-20 18:05 43.790948 -116.577688 132 9119ft 270kts
18-Apr-20 18:06 43.742134 -116.500844 132 7998ft 253kts
18-Apr-20 18:07 43.698739 -116.432737 132 7996ft 225kts
18-Apr-20 18:08 43.656496 -116.366616 132 6587ft 229kts
18-Apr-20 18:09 43.614972 -116.301760 132 5080ft 222kts
18-Apr-20 18:10 43.583938 -116.231131 113 3990ft 200kts
18-Apr-20 18:11 43.565802 -116.173035 111 3942ft 125kts
18-Apr-20 18:12 43.543123 -116.168272 298 3375ft 130kts
18-Apr-20 18:13 43.559386 -116.205189 297 2871ft 88kts
18-Apr-20 18:14 43.565502 -116.223073 296 2847ft 39kts
18-Apr-20 18:15 43.568242 -116.226309 23 2844ft 7kts
18-Apr-20 18:16 43.569033 -116.226659 273 2842ft 3kts
18-Apr-20 18:17 43.568853 -116.226935 173 2842ft 0kts
18-Apr-20 18:18 43.568853 -116.226935 173 2842ft 0kts
18-Apr-20 18:19 43.568853 -116.226935 173 2842ft 0kts
18-Apr-20 18:20 43.568853 -116.226935 173 2842ft 0kts
18-Apr-20 18:21 43.568853 -116.226935 173 2842ft 0kts
18-Apr-20 18:22 43.568853 -116.226935 173 2842ft 0kts
18-Apr-20 18:23 43.568853 -116.226935 173 2842ft 0kts
18-Apr-20 18:24 43.568853 -116.226935 173 2842ft 0kts
18-Apr-20 18:25 43.568853 -116.226935 173 2842ft 0kts
18-Apr-20 18:26 43.568853 -116.226935 173 2842ft 0kts
18-Apr-20 18:27 43.568853 -116.226935 173 2842ft 0kts
18-Apr-20 18:28 43.568853 -116.226935 173 2842ft 0kts

Navigation Log

Ident Type
Flight plan parsing failed, navigation log unavailable